sensor_id;sensor_type;location;lat;lon;timestamp;pressure;altitude;pressure_sealevel;temperature;humidity
35224;BME280;21367;51.930;8.112;2024-03-23T00:58:12;100200.72;;;9.20;100.00
35224;BME280;21367;51.930;8.112;2024-03-23T01:03:13;100199.75;;;9.18;100.00
35224;BME280;21367;51.930;8.112;2024-03-23T01:08:14;100195.47;;;9.17;100.00
35224;BME280;21367;51.930;8.112;2024-03-23T01:13:18;100185.91;;;9.13;100.00
35224;BME280;21367;51.930;8.112;2024-03-23T01:18:19;100179.00;;;9.12;100.00
35224;BME280;21367;51.930;8.112;2024-03-23T01:23:20;100170.44;;;9.11;100.00
35224;BME280;21367;51.930;8.112;2024-03-23T01:28:24;100159.28;;;9.09;100.00
35224;BME280;21367;51.930;8.112;2024-03-23T01:33:25;100154.16;;;9.09;100.00
35224;BME280;21367;51.930;8.112;2024-03-23T01:38:27;100155.78;;;9.07;100.00
35224;BME280;21367;51.930;8.112;2024-03-23T01:43:30;100152.25;;;9.05;100.00
35224;BME280;21367;51.930;8.112;2024-03-23T01:48:32;100135.09;;;9.02;100.00
35224;BME280;21367;51.930;8.112;2024-03-23T01:53:33;100125.72;;;9.03;100.00
35224;BME280;21367;51.930;8.112;2024-03-23T01:58:37;100123.03;;;9.00;100.00
35224;BME280;21367;51.930;8.112;2024-03-23T02:03:38;100124.72;;;8.99;100.00
35224;BME280;21367;51.930;8.112;2024-03-23T02:08:39;100122.06;;;8.96;100.00
35224;BME280;21367;51.930;8.112;2024-03-23T02:13:43;100114.28;;;8.95;100.00
35224;BME280;21367;51.930;8.112;2024-03-23T02:18:44;100119.38;;;8.93;100.00
35224;BME280;21367;51.930;8.112;2024-03-23T02:23:48;100112.47;;;8.92;100.00
35224;BME280;21367;51.930;8.112;2024-03-23T02:28:49;100109.78;;;8.89;100.00
35224;BME280;21367;51.930;8.112;2024-03-23T02:33:51;100102.06;;;8.88;100.00
35224;BME280;21367;51.930;8.112;2024-03-23T02:38:54;100106.25;;;8.86;100.00
35224;BME280;21367;51.930;8.112;2024-03-23T02:43:56;100112.97;;;8.84;100.00
35224;BME280;21367;51.930;8.112;2024-03-23T02:48:57;100112.97;;;8.84;100.00
35224;BME280;21367;51.930;8.112;2024-03-23T02:54:01;100103.50;;;8.81;100.00
35224;BME280;21367;51.930;8.112;2024-03-23T02:59:02;100101.75;;;8.80;100.00
35224;BME280;21367;51.930;8.112;2024-03-23T03:04:04;100086.25;;;8.77;100.00
35224;BME280;21367;51.930;8.112;2024-03-23T03:09:08;100090.47;;;8.75;100.00
35224;BME280;21367;51.930;8.112;2024-03-23T03:14:09;100094.75;;;8.76;100.00
35224;BME280;21367;51.930;8.112;2024-03-23T03:19:10;100090.38;;;8.73;100.00
35224;BME280;21367;51.930;8.112;2024-03-23T03:24:14;100081.78;;;8.71;100.00
35224;BME280;21367;51.930;8.112;2024-03-23T03:29:15;100075.72;;;8.69;100.00
35224;BME280;21367;51.930;8.112;2024-03-23T03:34:16;100074.72;;;8.66;100.00
35224;BME280;21367;51.930;8.112;2024-03-23T03:39:20;100084.97;;;8.66;100.00
35224;BME280;21367;51.930;8.112;2024-03-23T03:44:21;100083.91;;;8.61;100.00
35224;BME280;21367;51.930;8.112;2024-03-23T03:49:22;100090.66;;;8.58;100.00
35224;BME280;21367;51.930;8.112;2024-03-23T03:54:26;100094.78;;;8.55;100.00
35224;BME280;21367;51.930;8.112;2024-03-23T03:59:27;100082.78;;;8.54;100.00
35224;BME280;21367;51.930;8.112;2024-03-23T04:04:28;100082.66;;;8.51;100.00
35224;BME280;21367;51.930;8.112;2024-03-23T04:09:32;100077.50;;;8.49;100.00
35224;BME280;21367;51.930;8.112;2024-03-23T04:14:33;100077.38;;;8.46;100.00
35224;BME280;21367;51.930;8.112;2024-03-23T04:19:34;100070.50;;;8.45;100.00
35224;BME280;21367;51.930;8.112;2024-03-23T04:24:38;100074.75;;;8.45;100.00
35224;BME280;21367;51.930;8.112;2024-03-23T04:29:39;100043.88;;;8.42;100.00
35224;BME280;21367;51.930;8.112;2024-03-23T04:34:40;100031.94;;;8.42;100.00
35224;BME280;21367;51.930;8.112;2024-03-23T04:39:44;100039.63;;;8.42;100.00
35224;BME280;21367;51.930;8.112;2024-03-23T04:44:45;100049.00;;;8.42;100.00
35224;BME280;21367;51.930;8.112;2024-03-23T04:49:46;100065.25;;;8.42;100.00
35224;BME280;21367;51.930;8.112;2024-03-23T04:54:50;100057.50;;;8.41;100.00
35224;BME280;21367;51.930;8.112;2024-03-23T04:59:51;100054.09;;;8.40;100.00
35224;BME280;21367;51.930;8.112;2024-03-23T05:04:52;100048.97;;;8.40;100.00
35224;BME280;21367;51.930;8.112;2024-03-23T05:10:02;100045.50;;;8.40;100.00
35224;BME280;21367;51.930;8.112;2024-03-23T05:15:05;100037.78;;;8.38;100.00
35224;BME280;21367;51.930;8.112;2024-03-23T05:20:07;100048.72;;;8.35;100.00
35224;BME280;21367;51.930;8.112;2024-03-23T05:25:11;100051.28;;;8.35;100.00
35224;BME280;21367;51.930;8.112;2024-03-23T05:30:12;100054.59;;;8.33;100.00
35224;BME280;21367;51.930;8.112;2024-03-23T05:35:13;100056.28;;;8.32;100.00
35224;BME280;21367;51.930;8.112;2024-03-23T05:40:17;100063.06;;;8.30;100.00
35224;BME280;21367;51.930;8.112;2024-03-23T05:45:18;100052.84;;;8.32;100.00
35224;BME280;21367;51.930;8.112;2024-03-23T05:50:20;100052.03;;;8.33;100.00
35224;BME280;21367;51.930;8.112;2024-03-23T05:55:23;100047.03;;;8.36;100.00
35224;BME280;21367;51.930;8.112;2024-03-23T06:00:25;100064.03;;;8.34;100.00
35224;BME280;21367;51.930;8.112;2024-03-23T06:05:26;100076.97;;;8.37;100.00
35224;BME280;21367;51.930;8.112;2024-03-23T06:10:29;100063.66;;;8.46;100.00
35224;BME280;21367;51.930;8.112;2024-03-23T06:15:31;100064.56;;;8.46;100.00
35224;BME280;21367;51.930;8.112;2024-03-23T06:20:32;100076.59;;;8.49;100.00
35224;BME280;21367;51.930;8.112;2024-03-23T06:25:36;100084.94;;;8.43;100.00
35224;BME280;21367;51.930;8.112;2024-03-23T06:30:37;100087.41;;;8.42;100.00
35224;BME280;21367;51.930;8.112;2024-03-23T06:35:38;100080.56;;;8.41;100.00
35224;BME280;21367;51.930;8.112;2024-03-23T06:40:42;100080.56;;;8.41;100.00
35224;BME280;21367;51.930;8.112;2024-03-23T06:45:43;100076.69;;;8.50;100.00
35224;BME280;21367;51.930;8.112;2024-03-23T06:50:45;100075.97;;;8.75;100.00
35224;BME280;21367;51.930;8.112;2024-03-23T06:55:53;100093.44;;;8.86;100.00
35224;BME280;21367;51.930;8.112;2024-03-23T07:00:54;100110.81;;;9.15;100.00
35224;BME280;21367;51.930;8.112;2024-03-23T07:05:58;100124.91;;;9.26;100.00
35224;BME280;21367;51.930;8.112;2024-03-23T07:11:02;100131.00;;;9.30;100.00
35224;BME280;21367;51.930;8.112;2024-03-23T07:16:03;100126.81;;;9.32;100.00
35224;BME280;21367;51.930;8.112;2024-03-23T07:21:05;100123.44;;;9.33;100.00
35224;BME280;21367;51.930;8.112;2024-03-23T07:26:08;100120.81;;;9.32;100.00
35224;BME280;21367;51.930;8.112;2024-03-23T07:31:11;100138.63;;;9.51;100.00
35224;BME280;21367;51.930;8.112;2024-03-23T07:36:12;100140.78;;;9.63;100.00
35224;BME280;21367;51.930;8.112;2024-03-23T07:41:18;100139.63;;;9.55;100.00
35224;BME280;21367;51.930;8.112;2024-03-23T07:46:20;100143.63;;;9.46;100.00
35224;BME280;21367;51.930;8.112;2024-03-23T07:51:23;100151.34;;;9.48;100.00
35224;BME280;21367;51.930;8.112;2024-03-23T07:56:26;100159.84;;;9.02;100.00
35224;BME280;21367;51.930;8.112;2024-03-23T08:01:27;100154.13;;;8.66;100.00
35224;BME280;21367;51.930;8.112;2024-03-23T08:06:29;100154.06;;;8.64;100.00
35224;BME280;21367;51.930;8.112;2024-03-23T08:11:32;100153.94;;;8.61;100.00
35224;BME280;21367;51.930;8.112;2024-03-23T08:16:34;100155.25;;;8.72;100.00
35224;BME280;21367;51.930;8.112;2024-03-23T08:21:35;100147.84;;;8.80;100.00
35224;BME280;21367;51.930;8.112;2024-03-23T08:26:39;100152.13;;;8.79;100.00
35224;BME280;21367;51.930;8.112;2024-03-23T08:31:41;100146.75;;;8.73;100.00
35224;BME280;21367;51.930;8.112;2024-03-23T08:36:42;100146.38;;;8.85;100.00
35224;BME280;21367;51.930;8.112;2024-03-23T08:42:02;100139.31;;;9.02;100.00
35224;BME280;21367;51.930;8.112;2024-03-23T08:47:06;100132.00;;;9.34;100.00
35224;BME280;21367;51.930;8.112;2024-03-23T08:52:07;100138.63;;;9.51;100.00
35224;BME280;21367;51.930;8.112;2024-03-23T08:57:11;100141.59;;;9.62;100.00
35224;BME280;21367;51.930;8.112;2024-03-23T09:02:12;100150.41;;;9.46;100.00
35224;BME280;21367;51.930;8.112;2024-03-23T09:07:13;100150.97;;;9.37;100.00
35224;BME280;21367;51.930;8.112;2024-03-23T09:12:17;100182.47;;;9.57;100.00
35224;BME280;21367;51.930;8.112;2024-03-23T09:17:18;100153.28;;;9.31;100.00
35224;BME280;21367;51.930;8.112;2024-03-23T09:22:19;100152.94;;;8.99;100.00
35224;BME280;21367;51.930;8.112;2024-03-23T09:27:23;100164.59;;;8.93;100.00
35224;BME280;21367;51.930;8.112;2024-03-23T09:32:24;100155.16;;;9.35;100.00
35224;BME280;21367;51.930;8.112;2024-03-23T09:37:25;100147.03;;;9.47;100.00
35224;BME280;21367;51.930;8.112;2024-03-23T09:42:29;100149.47;;;9.66;100.00
35224;BME280;21367;51.930;8.112;2024-03-23T09:47:30;100150.94;;;9.60;98.39
35224;BME280;21367;51.930;8.112;2024-03-23T09:52:32;100129.00;;;9.92;98.93
35224;BME280;21367;51.930;8.112;2024-03-23T09:57:38;100138.94;;;9.83;95.96
35224;BME280;21367;51.930;8.112;2024-03-23T10:02:39;100148.06;;;9.75;99.28
35224;BME280;21367;51.930;8.112;2024-03-23T10:07:40;100155.31;;;9.62;96.67
35224;BME280;21367;51.930;8.112;2024-03-23T10:12:47;100146.16;;;9.24;95.64
35224;BME280;21367;51.930;8.112;2024-03-23T10:17:48;100142.44;;;9.16;94.92
35224;BME280;21367;51.930;8.112;2024-03-23T10:22:50;100142.59;;;9.20;95.82
35224;BME280;21367;51.930;8.112;2024-03-23T10:28:01;100130.78;;;9.01;94.43
35224;BME280;21367;51.930;8.112;2024-03-23T10:33:09;100128.69;;;8.91;96.34
35224;BME280;21367;51.930;8.112;2024-03-23T10:38:11;100133.34;;;8.80;99.72
35224;BME280;21367;51.930;8.112;2024-03-23T10:43:15;100137.22;;;8.92;100.00
35224;BME280;21367;51.930;8.112;2024-03-23T10:48:17;100132.59;;;8.83;100.00
35224;BME280;21367;51.930;8.112;2024-03-23T10:53:40;100131.13;;;8.67;100.00
35224;BME280;21367;51.930;8.112;2024-03-23T10:58:50;100133.44;;;8.61;100.00
35224;BME280;21367;51.930;8.112;2024-03-23T11:03:52;100123.19;;;8.82;100.00
35224;BME280;21367;51.930;8.112;2024-03-23T11:08:53;100121.88;;;9.14;100.00
35224;BME280;21367;51.930;8.112;2024-03-23T11:13:57;100124.66;;;9.43;100.00
35224;BME280;21367;51.930;8.112;2024-03-23T11:19:34;100108.78;;;9.77;96.43
35224;BME280;21367;51.930;8.112;2024-03-23T11:24:37;100123.53;;;9.83;94.07
35224;BME280;21367;51.930;8.112;2024-03-23T11:29:40;100103.88;;;9.83;88.78
35224;BME280;21367;51.930;8.112;2024-03-23T11:34:41;100105.03;;;9.91;86.13
35224;BME280;21367;51.930;8.112;2024-03-23T11:39:43;100095.91;;;10.25;83.39
35224;BME280;21367;51.930;8.112;2024-03-23T11:44:47;100089.66;;;10.42;80.42
35224;BME280;21367;51.930;8.112;2024-03-23T11:49:48;100083.94;;;10.51;78.36
35224;BME280;21367;51.930;8.112;2024-03-23T11:54:50;100086.44;;;10.50;75.97
35224;BME280;21367;51.930;8.112;2024-03-23T11:59:54;100146.09;;;9.91;73.35
35224;BME280;21367;51.930;8.112;2024-03-23T12:04:55;100150.16;;;8.95;79.38
35224;BME280;21367;51.930;8.112;2024-03-23T12:10:03;100148.31;;;8.70;88.69
35224;BME280;21367;51.930;8.112;2024-03-23T12:15:08;100139.91;;;8.95;93.42
35224;BME280;21367;51.930;8.112;2024-03-23T12:20:10;100140.22;;;9.02;92.52
35224;BME280;21367;51.930;8.112;2024-03-23T12:25:17;100134.22;;;9.02;94.37
35224;BME280;21367;51.930;8.112;2024-03-23T12:30:21;100121.31;;;9.21;95.45
35224;BME280;21367;51.930;8.112;2024-03-23T12:35:22;100111.56;;;9.35;91.83
35224;BME280;21367;51.930;8.112;2024-03-23T12:40:23;100107.94;;;9.30;89.68
35224;BME280;21367;51.930;8.112;2024-03-23T12:45:27;100105.19;;;9.48;83.94
35224;BME280;21367;51.930;8.112;2024-03-23T12:50:28;100108.34;;;9.65;80.68
35224;BME280;21367;51.930;8.112;2024-03-23T12:55:29;100109.84;;;9.82;81.23
35224;BME280;21367;51.930;8.112;2024-03-23T13:00:33;100106.31;;;9.80;80.79
35224;BME280;21367;51.930;8.112;2024-03-23T13:05:35;100106.22;;;10.01;82.56
35224;BME280;21367;51.930;8.112;2024-03-23T13:10:36;100139.97;;;9.88;83.49
35224;BME280;21367;51.930;8.112;2024-03-23T13:15:40;100156.75;;;8.88;91.23
35224;BME280;21367;51.930;8.112;2024-03-23T13:20:41;100141.72;;;8.34;97.93
35224;BME280;21367;51.930;8.112;2024-03-23T13:25:49;100124.03;;;8.60;97.75
35224;BME280;21367;51.930;8.112;2024-03-23T13:30:57;100117.31;;;8.85;100.00
35224;BME280;21367;51.930;8.112;2024-03-23T13:35:58;100103.78;;;8.89;98.84
35224;BME280;21367;51.930;8.112;2024-03-23T13:41:00;100100.72;;;8.97;100.00
35224;BME280;21367;51.930;8.112;2024-03-23T13:46:04;100100.22;;;9.06;100.00
35224;BME280;21367;51.930;8.112;2024-03-23T13:51:06;100104.97;;;9.19;100.00
35224;BME280;21367;51.930;8.112;2024-03-23T13:56:07;100106.25;;;9.08;100.00
35224;BME280;21367;51.930;8.112;2024-03-23T14:01:11;100122.91;;;8.97;99.47
35224;BME280;21367;51.930;8.112;2024-03-23T14:06:12;100159.38;;;8.69;98.64
35224;BME280;21367;51.930;8.112;2024-03-23T14:11:13;100169.03;;;8.15;100.00
35224;BME280;21367;51.930;8.112;2024-03-23T14:16:16;100162.78;;;7.88;100.00
35224;BME280;21367;51.930;8.112;2024-03-23T14:21:18;100157.25;;;7.60;100.00
35224;BME280;21367;51.930;8.112;2024-03-23T14:26:19;100157.78;;;7.33;100.00
35224;BME280;21367;51.930;8.112;2024-03-23T14:31:23;100162.47;;;7.06;100.00
35224;BME280;21367;51.930;8.112;2024-03-23T14:36:24;100154.06;;;6.91;100.00
35224;BME280;21367;51.930;8.112;2024-03-23T14:41:25;100136.44;;;8.10;100.00
35224;BME280;21367;51.930;8.112;2024-03-23T14:46:29;100135.28;;;9.07;100.00
35224;BME280;21367;51.930;8.112;2024-03-23T14:51:30;100136.88;;;9.72;100.00
35224;BME280;21367;51.930;8.112;2024-03-23T14:56:31;100130.72;;;9.93;100.00
35224;BME280;21367;51.930;8.112;2024-03-23T15:01:35;100114.66;;;10.23;100.00
35224;BME280;21367;51.930;8.112;2024-03-23T15:06:36;100106.25;;;10.27;100.00
35224;BME280;21367;51.930;8.112;2024-03-23T15:11:37;100105.03;;;9.67;100.00
35224;BME280;21367;51.930;8.112;2024-03-23T15:16:41;100084.63;;;9.46;100.00
35224;BME280;21367;51.930;8.112;2024-03-23T15:21:42;100078.19;;;10.07;100.00
35224;BME280;21367;51.930;8.112;2024-03-23T15:26:43;100058.28;;;10.53;88.54
35224;BME280;21367;51.930;8.112;2024-03-23T15:31:47;100068.00;;;10.10;87.18
35224;BME280;21367;51.930;8.112;2024-03-23T15:36:48;100068.88;;;9.61;90.47
35224;BME280;21367;51.930;8.112;2024-03-23T15:41:50;100066.97;;;10.05;91.27
35224;BME280;21367;51.930;8.112;2024-03-23T15:46:53;100054.97;;;10.30;88.97
35224;BME280;21367;51.930;8.112;2024-03-23T15:52:08;100057.63;;;10.31;88.29
35224;BME280;21367;51.930;8.112;2024-03-23T15:57:33;100039.50;;;9.77;87.71
35224;BME280;21367;51.930;8.112;2024-03-23T16:02:53;100040.97;;;9.70;93.25
35224;BME280;21367;51.930;8.112;2024-03-23T16:14:12;100047.50;;;10.12;83.91
35224;BME280;21367;51.930;8.112;2024-03-23T16:20:29;100042.34;;;10.36;79.37
35224;BME280;21367;51.930;8.112;2024-03-23T16:25:55;100041.97;;;10.25;73.41
35224;BME280;21367;51.930;8.112;2024-03-23T16:31:24;100046.84;;;9.92;74.45
35224;BME280;21367;51.930;8.112;2024-03-23T16:37:15;100042.44;;;9.62;75.99
35224;BME280;21367;51.930;8.112;2024-03-23T16:42:27;100050.25;;;9.43;80.27
35224;BME280;21367;51.930;8.112;2024-03-23T16:47:28;100057.31;;;9.48;81.69
35224;BME280;21367;51.930;8.112;2024-03-23T16:52:32;100052.94;;;9.22;83.83
35224;BME280;21367;51.930;8.112;2024-03-23T16:57:35;100053.88;;;9.01;84.30
35224;BME280;21367;51.930;8.112;2024-03-23T17:02:36;100044.81;;;8.87;85.93
35224;BME280;21367;51.930;8.112;2024-03-23T17:07:40;100043.88;;;8.63;84.46
35224;BME280;21367;51.930;8.112;2024-03-23T17:12:41;100041.66;;;8.49;85.07
35224;BME280;21367;51.930;8.112;2024-03-23T17:17:50;100051.78;;;8.27;91.11
35224;BME280;21367;51.930;8.112;2024-03-23T17:22:57;100050.38;;;8.13;93.49
35224;BME280;21367;51.930;8.112;2024-03-23T17:27:59;100048.53;;;7.89;95.11
35224;BME280;21367;51.930;8.112;2024-03-23T17:33:00;100051.72;;;7.83;95.28
35224;BME280;21367;51.930;8.112;2024-03-23T17:38:09;100055.16;;;7.84;96.72
35224;BME280;21367;51.930;8.112;2024-03-23T17:43:11;100087.13;;;7.55;97.19
35224;BME280;21367;51.930;8.112;2024-03-23T17:48:12;100101.38;;;6.75;100.00
35224;BME280;21367;51.930;8.112;2024-03-23T17:53:40;100085.38;;;6.25;100.00
35224;BME280;21367;51.930;8.112;2024-03-23T17:58:59;100079.16;;;6.20;100.00
35224;BME280;21367;51.930;8.112;2024-03-23T18:04:23;100091.06;;;6.20;100.00
35224;BME280;21367;51.930;8.112;2024-03-23T18:27:29;100098.13;;;5.75;100.00
35224;BME280;21367;51.930;8.112;2024-03-23T18:32:31;100091.19;;;5.72;100.00
35224;BME280;21367;51.930;8.112;2024-03-23T18:37:49;100087.69;;;5.70;100.00
35224;BME280;21367;51.930;8.112;2024-03-23T18:49:05;100081.00;;;5.56;100.00
35224;BME280;21367;51.930;8.112;2024-03-23T18:54:50;100081.41;;;5.47;100.00
35224;BME280;21367;51.930;8.112;2024-03-23T19:00:20;100084.16;;;5.36;100.00
35224;BME280;21367;51.930;8.112;2024-03-23T19:05:37;100083.13;;;5.32;100.00
35224;BME280;21367;51.930;8.112;2024-03-23T19:11:21;100093.31;;;5.16;100.00
35224;BME280;21367;51.930;8.112;2024-03-23T19:16:30;100091.56;;;5.15;100.00
35224;BME280;21367;51.930;8.112;2024-03-23T19:21:34;100089.56;;;5.09;100.00
35224;BME280;21367;51.930;8.112;2024-03-23T19:26:46;100089.47;;;5.07;100.00
35224;BME280;21367;51.930;8.112;2024-03-23T19:31:47;100080.63;;;5.01;100.00
35224;BME280;21367;51.930;8.112;2024-03-23T19:36:48;100075.19;;;4.95;100.00
35224;BME280;21367;51.930;8.112;2024-03-23T19:41:59;100077.88;;;4.81;100.00
35224;BME280;21367;51.930;8.112;2024-03-23T19:47:12;100066.44;;;4.73;100.00
35224;BME280;21367;51.930;8.112;2024-03-23T19:52:23;100060.25;;;4.70;100.00
35224;BME280;21367;51.930;8.112;2024-03-23T19:57:44;100060.66;;;4.61;100.00
35224;BME280;21367;51.930;8.112;2024-03-23T20:03:06;100048.81;;;4.61;100.00
35224;BME280;21367;51.930;8.112;2024-03-23T20:08:22;100051.09;;;4.57;100.00
35224;BME280;21367;51.930;8.112;2024-03-23T20:13:26;100042.75;;;4.45;100.00
35224;BME280;21367;51.930;8.112;2024-03-23T20:18:28;100036.63;;;4.41;100.00
35224;BME280;21367;51.930;8.112;2024-03-23T20:23:30;100034.19;;;4.43;100.00
35224;BME280;21367;51.930;8.112;2024-03-23T20:34:47;99997.16;;;5.12;100.00
35224;BME280;21367;51.930;8.112;2024-03-23T20:40:38;99968.81;;;5.38;100.00
35224;BME280;21367;51.930;8.112;2024-03-23T20:52:32;100008.22;;;5.61;100.00
35224;BME280;21367;51.930;8.112;2024-03-23T20:57:34;100013.38;;;5.63;100.00
35224;BME280;21367;51.930;8.112;2024-03-23T21:02:59;100025.56;;;5.68;100.00
35224;BME280;21367;51.930;8.112;2024-03-23T21:08:03;100029.19;;;5.73;100.00
35224;BME280;21367;51.930;8.112;2024-03-23T21:13:05;100021.69;;;5.76;100.00
35224;BME280;21367;51.930;8.112;2024-03-23T21:18:06;100015.09;;;5.80;100.00
35224;BME280;21367;51.930;8.112;2024-03-23T21:23:09;100019.44;;;5.83;100.00
35224;BME280;21367;51.930;8.112;2024-03-23T21:28:11;100015.16;;;5.82;100.00
35224;BME280;21367;51.930;8.112;2024-03-23T21:33:12;100025.59;;;5.86;100.00
35224;BME280;21367;51.930;8.112;2024-03-23T21:38:16;100019.84;;;5.90;100.00
35224;BME280;21367;51.930;8.112;2024-03-23T21:43:17;100015.00;;;5.95;100.00
35224;BME280;21367;51.930;8.112;2024-03-23T21:48:18;100013.41;;;5.97;100.00
35224;BME280;21367;51.930;8.112;2024-03-23T21:53:22;100003.34;;;6.00;100.00
35224;BME280;21367;51.930;8.112;2024-03-23T21:58:24;99998.47;;;6.05;100.00
35224;BME280;21367;51.930;8.112;2024-03-23T22:03:25;99990.03;;;6.06;100.00
35224;BME280;21367;51.930;8.112;2024-03-23T22:08:29;99984.13;;;6.07;100.00
35224;BME280;21367;51.930;8.112;2024-03-23T22:13:30;99979.72;;;6.04;100.00
35224;BME280;21367;51.930;8.112;2024-03-23T22:18:31;99962.69;;;6.03;100.00
35224;BME280;21367;51.930;8.112;2024-03-23T22:23:35;99963.34;;;5.99;100.00
35224;BME280;21367;51.930;8.112;2024-03-23T22:28:36;99958.09;;;5.96;100.00
35224;BME280;21367;51.930;8.112;2024-03-23T22:33:37;99953.00;;;5.96;100.00
35224;BME280;21367;51.930;8.112;2024-03-23T22:38:41;99939.28;;;5.94;100.00
35224;BME280;21367;51.930;8.112;2024-03-23T22:43:42;99934.19;;;5.94;100.00
35224;BME280;21367;51.930;8.112;2024-03-23T22:48:43;99928.09;;;5.92;100.00
35224;BME280;21367;51.930;8.112;2024-03-23T22:53:47;99924.53;;;5.88;100.00
35224;BME280;21367;51.930;8.112;2024-03-23T22:58:48;99918.50;;;5.86;100.00
35224;BME280;21367;51.930;8.112;2024-03-23T23:03:50;99926.94;;;5.85;100.00
35224;BME280;21367;51.930;8.112;2024-03-23T23:08:56;99926.78;;;5.82;100.00
35224;BME280;21367;51.930;8.112;2024-03-23T23:13:57;99919.84;;;5.79;100.00
35224;BME280;21367;51.930;8.112;2024-03-23T23:18:58;99910.63;;;5.82;100.00
35224;BME280;21367;51.930;8.112;2024-03-23T23:24:02;99906.38;;;5.82;100.00
35224;BME280;21367;51.930;8.112;2024-03-23T23:29:03;99898.59;;;5.79;100.00
35224;BME280;21367;51.930;8.112;2024-03-23T23:34:04;99890.03;;;5.77;100.00
35224;BME280;21367;51.930;8.112;2024-03-23T23:39:08;99888.19;;;5.74;100.00
35224;BME280;21367;51.930;8.112;2024-03-23T23:44:10;99896.63;;;5.73;100.00
35224;BME280;21367;51.930;8.112;2024-03-23T23:49:14;99891.53;;;5.73;100.00
35224;BME280;21367;51.930;8.112;2024-03-23T23:54:18;99884.84;;;5.75;100.00
35224;BME280;21367;51.930;8.112;2024-03-23T23:59:19;99873.03;;;5.77;100.00
